Time,TemperatureF,DewpointF,PressureIn,WindDirection,WindDirectionDegrees,WindSpeedMPH,WindSpeedGustMPH,Humidity,HourlyPrecipIn,Conditions,Clouds,dailyrainin,SolarRadiationWatts/m^2,SoftwareType,DateUTC
2013-04-15 00:03:00,63.0,38.0,-100.00,NW,305,6.0,14.0,39,0.00,,,0.00,0.000000,,2013-04-15 04:03:00,
2013-04-15 00:13:00,63.0,38.0,-100.00,NW,305,6.0,14.0,39,0.00,,,0.00,0.000000,,2013-04-15 04:13:00,
2013-04-15 00:43:00,54.0,50.0,-100.00,SSW,201,2.0,9.0,86,0.02,,,0.02,0.000000,,2013-04-15 04:43:00,
2013-04-15 00:53:00,54.0,50.0,-100.00,SSW,201,2.0,9.0,86,0.02,,,0.02,0.000000,,2013-04-15 04:53:00,
2013-04-15 01:03:00,54.0,50.0,-100.00,SSW,201,2.0,9.0,86,0.02,,,0.02,0.000000,,2013-04-15 05:03:00,
2013-04-15 01:13:00,54.0,50.0,-100.00,SSW,201,2.0,9.0,86,0.02,,,0.02,0.000000,,2013-04-15 05:13:00,
2013-04-15 01:33:00,53.0,53.0,-100.00,SSE,160,1.0,3.0,99,0.02,,,0.04,0.000000,,2013-04-15 05:33:00,
2013-04-15 01:43:00,53.0,53.0,-100.00,SSE,160,1.0,3.0,99,0.02,,,0.04,0.000000,,2013-04-15 05:43:00,
2013-04-15 01:53:00,53.0,53.0,-100.00,SSE,160,1.0,3.0,99,0.02,,,0.04,0.000000,,2013-04-15 05:53:00,
2013-04-15 02:02:00,53.0,53.0,-100.00,SSE,160,1.0,3.0,99,0.02,,,0.04,0.000000,,2013-04-15 06:02:00,
2013-04-15 02:12:00,53.0,53.0,-100.00,SSE,160,1.0,3.0,99,0.02,,,0.04,0.000000,,2013-04-15 06:12:00,
2013-04-15 02:17:00,52.0,52.0,-100.00,SW,220,1.0,3.0,100,0.04,,,0.08,0.000000,,2013-04-15 06:17:00,
2013-04-15 02:43:00,52.0,52.0,-100.00,SW,220,1.0,3.0,100,0.04,,,0.08,0.000000,,2013-04-15 06:43:00,
2013-04-15 02:53:00,52.0,52.0,-100.00,SW,220,1.0,3.0,100,0.04,,,0.08,0.000000,,2013-04-15 06:53:00,
2013-04-15 03:03:00,52.0,52.0,-100.00,SW,220,1.0,3.0,100,0.04,,,0.08,0.000000,,2013-04-15 07:03:00,
2013-04-15 03:43:00,52.0,52.0,-100.00,West,276,1.0,3.0,100,0.05,,,0.13,0.000000,,2013-04-15 07:43:00,
2013-04-15 03:54:00,52.0,52.0,-100.00,West,276,1.0,3.0,100,0.05,,,0.13,0.000000,,2013-04-15 07:54:00,
2013-04-15 04:03:00,52.0,52.0,-100.00,West,276,1.0,3.0,100,0.05,,,0.13,0.000000,,2013-04-15 08:03:00,
2013-04-15 04:14:00,52.0,52.0,-100.00,West,276,1.0,3.0,100,0.05,,,0.13,0.000000,,2013-04-15 08:14:00,
2013-04-15 04:43:00,52.0,52.0,-100.00,SW,226,1.0,2.0,100,0.03,,,0.16,0.000000,,2013-04-15 08:43:00,
2013-04-15 04:52:00,52.0,52.0,-100.00,SW,226,1.0,2.0,100,0.03,,,0.16,0.000000,,2013-04-15 08:52:00,
2013-04-15 05:03:00,52.0,52.0,-100.00,SW,226,1.0,2.0,100,0.03,,,0.16,0.000000,,2013-04-15 09:03:00,
2013-04-15 05:13:00,52.0,52.0,-100.00,SW,226,1.0,2.0,100,0.03,,,0.16,0.000000,,2013-04-15 09:13:00,
2013-04-15 05:43:00,52.0,52.0,-100.00,SE,145,0.0,1.0,100,0.00,,,0.16,0.000000,,2013-04-15 09:43:00,
2013-04-15 05:53:00,52.0,52.0,-100.00,SE,145,0.0,1.0,100,0.00,,,0.16,0.000000,,2013-04-15 09:53:00,
2013-04-15 06:03:00,52.0,52.0,-100.00,SE,145,0.0,1.0,100,0.00,,,0.16,0.000000,,2013-04-15 10:03:00,
2013-04-15 06:13:00,52.0,52.0,-100.00,SE,145,0.0,1.0,100,0.00,,,0.16,0.000000,,2013-04-15 10:13:00,
2013-04-15 06:33:00,52.0,52.0,-100.00,NW,319,1.0,3.0,100,0.00,,,0.16,0.000000,,2013-04-15 10:33:00,
2013-04-15 06:42:00,52.0,52.0,-100.00,NW,319,1.0,3.0,100,0.00,,,0.16,0.000000,,2013-04-15 10:42:00,
2013-04-15 06:53:00,52.0,52.0,-100.00,NW,319,1.0,3.0,100,0.00,,,0.16,0.000000,,2013-04-15 10:53:00,
2013-04-15 07:03:00,52.0,52.0,-100.00,NW,319,1.0,3.0,100,0.00,,,0.16,0.000000,,2013-04-15 11:03:00,
2013-04-15 07:13:00,52.0,52.0,-100.00,NW,319,1.0,3.0,100,0.00,,,0.16,0.000000,,2013-04-15 11:13:00,
2013-04-15 07:44:00,52.0,52.0,-100.00,SE,128,1.0,4.0,100,0.00,,,0.16,1.000000,,2013-04-15 11:44:00,
2013-04-15 07:54:00,52.0,52.0,-100.00,SE,128,1.0,4.0,100,0.00,,,0.16,1.000000,,2013-04-15 11:54:00,
2013-04-15 08:05:00,52.0,52.0,-100.00,SE,128,1.0,4.0,100,0.00,,,0.16,1.000000,,2013-04-15 12:05:00,
2013-04-15 08:14:00,52.0,52.0,-100.00,SE,128,1.0,4.0,100,0.00,,,0.16,1.000000,,2013-04-15 12:14:00,
2013-04-15 08:43:00,53.0,53.0,-100.00,ESE,122,2.0,4.0,100,0.00,,,0.16,17.000000,,2013-04-15 12:43:00,
2013-04-15 08:54:00,53.0,53.0,-100.00,ESE,122,2.0,4.0,100,0.00,,,0.16,17.000000,,2013-04-15 12:54:00,
2013-04-15 09:05:00,53.0,53.0,-100.00,ESE,122,2.0,4.0,100,0.00,,,0.16,17.000000,,2013-04-15 13:05:00,
2013-04-15 09:13:00,53.0,53.0,-100.00,ESE,122,2.0,4.0,100,0.00,,,0.16,17.000000,,2013-04-15 13:13:00,
2013-04-15 09:43:00,56.0,55.0,-100.00,North,359,2.0,7.0,98,0.00,,,0.16,52.000000,,2013-04-15 13:43:00,
2013-04-15 09:54:00,56.0,55.0,-100.00,North,359,2.0,7.0,98,0.00,,,0.16,52.000000,,2013-04-15 13:54:00,
2013-04-15 10:05:00,56.0,55.0,-100.00,North,359,2.0,7.0,98,0.00,,,0.16,52.000000,,2013-04-15 14:05:00,
2013-04-15 10:13:00,56.0,55.0,-100.00,North,359,2.0,7.0,98,0.00,,,0.16,52.000000,,2013-04-15 14:13:00,
2013-04-15 10:44:00,59.0,50.0,-100.00,NW,326,4.0,11.0,72,0.00,,,0.16,115.000000,,2013-04-15 14:44:00,
2013-04-15 10:55:00,59.0,50.0,-100.00,NW,326,4.0,11.0,72,0.00,,,0.16,115.000000,,2013-04-15 14:55:00,
2013-04-15 11:04:00,59.0,50.0,-100.00,NW,326,4.0,11.0,72,0.00,,,0.16,115.000000,,2013-04-15 15:04:00,
2013-04-15 11:13:00,59.0,50.0,-100.00,NW,326,4.0,11.0,72,0.00,,,0.16,115.000000,,2013-04-15 15:13:00,
2013-04-15 11:45:00,60.0,50.0,-100.00,NNW,348,4.0,10.0,69,0.00,,,0.16,126.000000,,2013-04-15 15:45:00,
2013-04-15 12:05:00,60.0,50.0,-100.00,NNW,348,4.0,10.0,69,0.00,,,0.16,126.000000,,2013-04-15 16:05:00,
2013-04-15 12:14:00,60.0,50.0,-100.00,NNW,348,4.0,10.0,69,0.00,,,0.16,126.000000,,2013-04-15 16:14:00,
2013-04-15 12:34:00,61.0,49.0,-100.00,North,5,4.0,10.0,65,0.00,,,0.16,200.000000,,2013-04-15 16:34:00,
2013-04-15 12:44:00,61.0,49.0,-100.00,North,5,4.0,10.0,65,0.00,,,0.16,200.000000,,2013-04-15 16:44:00,
2013-04-15 12:54:00,61.0,49.0,-100.00,North,5,4.0,10.0,65,0.00,,,0.16,200.000000,,2013-04-15 16:54:00,
2013-04-15 13:04:00,61.0,49.0,-100.00,North,5,4.0,10.0,65,0.00,,,0.16,200.000000,,2013-04-15 17:04:00,
2013-04-15 13:15:00,61.0,49.0,-100.00,North,5,4.0,10.0,65,0.00,,,0.16,200.000000,,2013-04-15 17:15:00,
2013-04-15 13:43:00,65.0,51.0,-100.00,North,8,7.0,15.0,60,0.00,,,0.16,537.000000,,2013-04-15 17:43:00,
2013-04-15 13:53:00,65.0,51.0,-100.00,North,8,7.0,15.0,60,0.00,,,0.16,537.000000,,2013-04-15 17:53:00,
2013-04-15 14:04:00,65.0,51.0,-100.00,North,8,7.0,15.0,60,0.00,,,0.16,537.000000,,2013-04-15 18:04:00,
2013-04-15 14:13:00,65.0,51.0,-100.00,North,8,7.0,15.0,60,0.00,,,0.16,537.000000,,2013-04-15 18:13:00,
2013-04-15 14:42:00,65.0,49.0,-100.00,North,0,9.0,19.0,57,0.00,,,0.16,767.000000,,2013-04-15 18:42:00,
2013-04-15 14:52:00,65.0,49.0,-100.00,North,0,9.0,19.0,57,0.00,,,0.16,767.000000,,2013-04-15 18:52:00,
2013-04-15 15:02:00,65.0,49.0,-100.00,North,0,9.0,19.0,57,0.00,,,0.16,767.000000,,2013-04-15 19:02:00,
2013-04-15 15:12:00,65.0,49.0,-100.00,North,0,9.0,19.0,57,0.00,,,0.16,767.000000,,2013-04-15 19:12:00,
2013-04-15 15:59:00,66.0,48.0,-100.00,WNW,295,7.0,15.0,53,0.00,,,0.16,623.000000,,2013-04-15 19:59:00,
2013-04-15 16:02:00,66.0,48.0,-100.00,WNW,295,7.0,15.0,53,0.00,,,0.16,623.000000,,2013-04-15 20:02:00,
2013-04-15 16:12:00,66.0,48.0,-100.00,WNW,295,7.0,15.0,53,0.00,,,0.16,623.000000,,2013-04-15 20:12:00,
2013-04-15 16:32:00,68.0,51.0,-100.00,North,357,6.0,16.0,54,0.00,,,0.16,555.000000,,2013-04-15 20:32:00,
2013-04-15 16:42:00,68.0,51.0,-100.00,North,357,6.0,16.0,54,0.00,,,0.16,555.000000,,2013-04-15 20:42:00,
2013-04-15 16:52:00,68.0,51.0,-100.00,North,357,6.0,16.0,54,0.00,,,0.16,555.000000,,2013-04-15 20:52:00,
2013-04-15 17:02:00,68.0,51.0,-100.00,North,357,6.0,16.0,54,0.00,,,0.16,555.000000,,2013-04-15 21:02:00,
2013-04-15 17:12:00,68.0,51.0,-100.00,North,357,6.0,16.0,54,0.00,,,0.16,555.000000,,2013-04-15 21:12:00,
2013-04-15 17:43:00,66.0,48.0,-100.00,NW,315,6.0,13.0,53,0.00,,,0.16,422.000000,,2013-04-15 21:43:00,
2013-04-15 17:53:00,66.0,48.0,-100.00,NW,315,6.0,13.0,53,0.00,,,0.16,422.000000,,2013-04-15 21:53:00,
2013-04-15 18:02:00,66.0,48.0,-100.00,NW,315,6.0,13.0,53,0.00,,,0.16,422.000000,,2013-04-15 22:02:00,
2013-04-15 18:13:00,66.0,48.0,-100.00,NW,315,6.0,13.0,53,0.00,,,0.16,422.000000,,2013-04-15 22:13:00,
2013-04-15 18:42:00,65.0,49.0,-100.00,North,350,7.0,11.0,57,0.00,,,0.16,382.000000,,2013-04-15 22:42:00,
2013-04-15 18:52:00,65.0,49.0,-100.00,North,350,7.0,11.0,57,0.00,,,0.16,382.000000,,2013-04-15 22:52:00,
2013-04-15 19:02:00,65.0,49.0,-100.00,North,350,7.0,11.0,57,0.00,,,0.16,382.000000,,2013-04-15 23:02:00,
2013-04-15 19:12:00,65.0,49.0,-100.00,North,350,7.0,11.0,57,0.00,,,0.16,382.000000,,2013-04-15 23:12:00,
2013-04-15 19:32:00,62.0,48.0,-100.00,North,352,5.0,9.0,60,0.00,,,0.16,163.000000,,2013-04-15 23:32:00,
2013-04-15 19:42:00,62.0,48.0,-100.00,North,352,5.0,9.0,60,0.00,,,0.16,163.000000,,2013-04-15 23:42:00,
2013-04-15 19:52:00,62.0,48.0,-100.00,North,352,5.0,9.0,60,0.00,,,0.16,163.000000,,2013-04-15 23:52:00,
2013-04-15 20:03:00,62.0,48.0,-100.00,North,352,5.0,9.0,60,0.00,,,0.16,163.000000,,2013-04-16 00:03:00,
2013-04-15 20:12:00,62.0,48.0,-100.00,North,352,5.0,9.0,60,0.00,,,0.16,163.000000,,2013-04-16 00:12:00,
2013-04-15 20:42:00,60.0,49.0,-100.00,NNW,333,5.0,11.0,68,0.00,,,0.16,9.000000,,2013-04-16 00:42:00,
2013-04-15 20:52:00,60.0,49.0,-100.00,NNW,333,5.0,11.0,68,0.00,,,0.16,9.000000,,2013-04-16 00:52:00,
2013-04-15 21:02:00,60.0,49.0,-100.00,NNW,333,5.0,11.0,68,0.00,,,0.16,9.000000,,2013-04-16 01:02:00,
2013-04-15 21:12:00,60.0,49.0,-100.00,NNW,333,5.0,11.0,68,0.00,,,0.16,9.000000,,2013-04-16 01:12:00,
2013-04-15 21:32:00,58.0,49.0,-100.00,NW,305,5.0,8.0,73,0.00,,,0.16,0.000000,,2013-04-16 01:32:00,
2013-04-15 21:42:00,58.0,49.0,-100.00,NW,305,5.0,8.0,73,0.00,,,0.16,0.000000,,2013-04-16 01:42:00,
2013-04-15 21:52:00,58.0,49.0,-100.00,NW,305,5.0,8.0,73,0.00,,,0.16,0.000000,,2013-04-16 01:52:00,
2013-04-15 22:02:00,58.0,49.0,-100.00,NW,305,5.0,8.0,73,0.00,,,0.16,0.000000,,2013-04-16 02:02:00,
2013-04-15 22:12:00,58.0,49.0,-100.00,NW,305,5.0,8.0,73,0.00,,,0.16,0.000000,,2013-04-16 02:12:00,
2013-04-15 22:42:00,59.0,52.0,-100.00,NW,319,4.0,11.0,78,0.00,,,0.16,0.000000,,2013-04-16 02:42:00,
2013-04-15 22:52:00,59.0,52.0,-100.00,NW,319,4.0,11.0,78,0.00,,,0.16,0.000000,,2013-04-16 02:52:00,
2013-04-15 23:02:00,59.0,52.0,-100.00,NW,319,4.0,11.0,78,0.00,,,0.16,0.000000,,2013-04-16 03:02:00,
2013-04-15 23:12:00,59.0,52.0,-100.00,NW,319,4.0,11.0,78,0.00,,,0.16,0.000000,,2013-04-16 03:12:00,
2013-04-15 23:43:00,56.0,48.0,-100.00,SSW,210,2.0,12.0,74,0.00,,,0.16,0.000000,,2013-04-16 03:43:00,
2013-04-15 23:53:00,56.0,48.0,-100.00,SSW,210,2.0,12.0,74,0.00,,,0.16,0.000000,,2013-04-16 03:53:00,